Main page
METAR-TAF:

METAR-TAF

Airports :

Nouméa Magenta Airport

Nouméa, New Caledonia

latitude: 22-15-30S, longitude: 166-28-22E, elevation: 3 m

METAR: missing

Time: 22:51 (11:51 UTC)

Forecast

The report was made 51 minutes ago, at 11:00 UTC
Forecast valid from 20 at 12 UTC to 21 at 12 UTC
Wind 10 kt from the East/Northeast
Visibility 10 km or more
Few clouds at a height of 3000 ft
Scattered clouds at a height of 4000 ft
Broken clouds at a height of 5000 ft
Probability 30% :
Temporary
from 20 at 12 UTC to 20 at 15 UTC
Visibility: 4500 m
Broken clouds at a height of 1400 ft
rain showers
Becoming
from 20 at 22 UTC to 20 at 24 UTC
Wind 15 kt from the Southeast

TAF: NWWM 201100Z 2012/2112 06010KT 9999 FEW030 SCT040 BKN050 PROB30 TEMPO 2012/2015 4500 SHRA BKN014 BECMG 2022/2024 13015KT

Weather observations and forecasts of more than 4000 airports (METAR and TAF reports).

The available stations are represented by yellow and red dots on the map.

Hover mouse over dot to see the name of the station.

Then click to see weather observations and forecasts.

To change the map : click on the green buttons with a black cross to zoom in, on the green button with a dash to zoom out, or on the green arrows for adjacent maps.


METAR-TAF: